Time;durP1;ratioP1;P1;durP2;ratioP2;P2;SDS_P1;SDS_P2;PMS_P1;PMS_P2;Temp;Humidity;BMP_temperature;BMP_pressure;BME280_temperature;BME280_humidity;BME280_pressure;Samples;Min_cycle;Max_cycle;Signal;HPM_P1;HPM_P2
2022/03/13 00:01:04;;;;;;;;;;;;;;;10.78;100.00;101426.25;4975902;28;19940;-71
2022/03/13 00:03:31;;;;;;;;;;;;;;;10.76;100.00;101423.66;4974479;28;20411;-71
2022/03/13 00:05:57;;;;;;;;;;;;;;;10.84;100.00;101415.44;4976072;28;20004;-71
2022/03/13 00:08:31;;;;;;;;;;;;;;;10.75;100.00;101429.03;4975585;28;19961;-71
2022/03/13 00:11:01;;;;;;;;;;;;;;;10.64;100.00;101417.91;4976041;28;19918;-71
2022/03/13 00:13:30;;;;;;;;;;;;;;;10.61;100.00;101415.34;4956871;29;19919;-71
2022/03/13 00:15:58;;;;;;;;;;;;;;;10.54;100.00;101421.81;4966263;28;19918;-71
2022/03/13 00:18:23;;;;;;;;;;;;;;;10.52;100.00;101413.88;4975300;28;20445;-71
2022/03/13 00:20:48;;;;;;;;;;;;;;;10.52;100.00;101413.00;4975113;28;19918;-71
2022/03/13 00:23:15;;;;;;;;;;;;;;;10.47;100.00;101414.94;4975417;28;20290;-72
2022/03/13 00:25:40;;;;;;;;;;;;;;;10.46;100.00;101406.09;4976694;28;20279;-71
2022/03/13 00:28:07;;;;;;;;;;;;;;;10.44;100.00;101399.09;4972906;28;19925;-71
2022/03/13 00:30:32;;;;;;;;;;;;;;;10.48;100.00;101406.03;4964207;28;19926;-70
2022/03/13 00:33:00;;;;;;;;;;;;;;;10.46;100.00;101408.75;4969225;28;20592;-71
2022/03/13 00:35:25;;;;;;;;;;;;;;;10.42;100.00;101400.94;4971579;28;19918;-69
2022/03/13 00:37:51;;;;;;;;;;;;;;;10.52;100.00;101407.69;4965353;28;20021;-69
2022/03/13 00:40:17;;;;;;;;;;;;;;;10.55;100.00;101404.94;4971751;28;20386;-71
2022/03/13 00:42:42;;;;;;;;;;;;;;;10.58;100.00;101407.47;4968305;28;20008;-69
2022/03/13 00:45:07;;;;;;;;;;;;;;;10.52;100.00;101397.06;4967735;28;19925;-69
2022/03/13 00:47:32;;;;;;;;;;;;;;;10.60;100.00;101401.19;4965336;28;19918;-70
2022/03/13 00:49:57;;;;;;;;;;;;;;;10.59;100.00;101399.47;4965254;28;19918;-69
2022/03/13 00:52:23;;;;;;;;;;;;;;;10.62;100.00;101393.19;4972572;28;19925;-70
2022/03/13 00:54:48;;;;;;;;;;;;;;;10.65;100.00;101393.94;4970998;28;19945;-70
2022/03/13 00:57:13;;;;;;;;;;;;;;;10.69;100.00;101397.34;4959934;28;20431;-70
2022/03/13 00:59:39;;;;;;;;;;;;;;;10.64;100.00;101396.66;4966783;28;20356;-70
2022/03/13 01:02:05;;;;;;;;;;;;;;;10.61;100.00;101396.75;4969729;28;19925;-70
2022/03/13 01:04:30;;;;;;;;;;;;;;;10.62;100.00;101390.53;4963328;28;19922;-69
2022/03/13 01:06:55;;;;;;;;;;;;;;;10.62;100.00;101382.56;4972669;28;20387;-70
2022/03/13 01:09:20;;;;;;;;;;;;;;;10.60;100.00;101381.75;4971325;28;19926;-70
2022/03/13 01:11:46;;;;;;;;;;;;;;;10.66;100.00;101389.50;4969947;28;19918;-70
2022/03/13 01:14:12;;;;;;;;;;;;;;;10.62;100.00;101383.41;4963575;28;19925;-69
2022/03/13 01:16:39;;;;;;;;;;;;;;;10.58;100.00;101383.56;4960834;28;19942;-70
2022/03/13 01:19:05;;;;;;;;;;;;;;;10.55;100.00;101387.22;4967342;28;20309;-71
2022/03/13 01:21:32;;;;;;;;;;;;;;;10.51;100.00;101376.75;4971125;28;19919;-70
2022/03/13 01:23:57;;;;;;;;;;;;;;;10.62;100.00;101377.25;4969581;28;19918;-69
2022/03/13 01:26:22;;;;;;;;;;;;;;;10.59;100.00;101377.34;4957590;28;19973;-69
2022/03/13 01:28:57;;;;;;;;;;;;;;;10.56;100.00;101374.78;4957642;28;20379;-70
2022/03/13 01:31:24;;;;;;;;;;;;;;;10.58;100.00;101367.63;4963368;28;19922;-70
2022/03/13 01:33:49;;;;;;;;;;;;;;;10.58;100.00;101373.84;4965730;28;20012;-69
2022/03/13 01:36:15;;;;;;;;;;;;;;;10.56;100.00;101364.16;4970936;28;20025;-70
2022/03/13 01:38:40;;;;;;;;;;;;;;;10.52;100.00;101358.09;4965263;28;19919;-70
2022/03/13 01:41:06;;;;;;;;;;;;;;;10.52;100.00;101359.88;4961920;28;20501;-70
2022/03/13 01:43:31;;;;;;;;;;;;;;;10.50;100.00;101351.97;4972669;28;19972;-71
2022/03/13 01:45:59;;;;;;;;;;;;;;;10.52;100.00;101355.44;4971268;28;19918;-70
2022/03/13 01:48:25;;;;;;;;;;;;;;;10.52;100.00;101351.91;4961671;28;19925;-70
2022/03/13 01:50:50;;;;;;;;;;;;;;;10.50;100.00;101353.75;5078777;23;19925;-71
2022/03/13 01:53:16;;;;;;;;;;;;;;;10.44;100.00;101349.53;5015273;28;19917;-71
2022/03/13 01:55:41;;;;;;;;;;;;;;;10.36;100.00;101335.66;5033752;28;19928;-71
2022/03/13 01:58:06;;;;;;;;;;;;;;;10.43;100.00;101338.97;5036418;28;19917;-70
2022/03/13 02:00:32;;;;;;;;;;;;;;;10.41;100.00;101343.44;5020878;28;19918;-71
2022/03/13 02:02:57;;;;;;;;;;;;;;;10.41;100.00;101336.38;5011915;28;19948;-71
2022/03/13 02:05:33;;;;;;;;;;;;;;;10.47;100.00;101335.28;5017008;28;20351;-71
2022/03/13 02:08:00;;;;;;;;;;;;;;;10.42;100.00;101337.22;4997335;28;19925;-71
2022/03/13 02:10:26;;;;;;;;;;;;;;;10.41;100.00;101332.84;5007968;28;19921;-71
2022/03/13 02:12:51;;;;;;;;;;;;;;;10.48;100.00;101337.00;5011050;28;19924;-72
2022/03/13 02:15:17;;;;;;;;;;;;;;;10.44;100.00;101335.38;5016346;28;19924;-71
2022/03/13 02:17:42;;;;;;;;;;;;;;;10.35;100.00;101330.38;5015208;28;19924;-72
2022/03/13 02:20:22;;;;;;;;;;;;;;;10.33;100.00;101332.22;5016462;28;19918;-71
2022/03/13 02:22:49;;;;;;;;;;;;;;;10.38;100.00;101330.28;5011898;28;19924;-71
2022/03/13 02:25:22;;;;;;;;;;;;;;;10.40;100.00;101321.31;4995546;28;20016;-71
2022/03/13 02:27:47;;;;;;;;;;;;;;;10.40;100.00;101321.31;4995422;28;19933;-71
2022/03/13 02:30:13;;;;;;;;;;;;;;;10.40;100.00;101318.66;4996641;28;19918;-71
2022/03/13 02:32:38;;;;;;;;;;;;;;;10.32;100.00;101311.91;4995301;28;19921;-71
2022/03/13 02:35:03;;;;;;;;;;;;;;;10.31;100.00;101312.81;4996336;28;19922;-72
2022/03/13 02:37:36;;;;;;;;;;;;;;;10.30;100.00;101304.00;4996345;28;19924;-71
2022/03/13 02:40:03;;;;;;;;;;;;;;;10.28;100.00;101302.28;4996273;28;19918;-71
2022/03/13 02:42:28;;;;;;;;;;;;;;;10.31;100.00;101305.72;4996891;28;19917;-71
2022/03/13 02:44:53;;;;;;;;;;;;;;;10.31;100.00;101300.41;5010726;28;19925;-71
2022/03/13 02:47:18;;;;;;;;;;;;;;;10.26;100.00;101299.69;5013527;28;20378;-71
2022/03/13 02:49:44;;;;;;;;;;;;;;;10.35;100.00;101290.56;4995163;28;19929;-71
2022/03/13 02:52:09;;;;;;;;;;;;;;;10.28;100.00;101286.38;4995006;28;19922;-71
2022/03/13 02:54:34;;;;;;;;;;;;;;;10.28;100.00;101297.88;4994788;28;19949;-71
2022/03/13 02:57:00;;;;;;;;;;;;;;;10.28;100.00;101297.00;4996003;28;19918;-71
2022/03/13 02:59:25;;;;;;;;;;;;;;;10.30;100.00;101289.84;4994541;28;19929;-71
2022/03/13 03:01:50;;;;;;;;;;;;;;;10.33;100.00;101287.09;4995816;28;19973;-71
2022/03/13 03:04:16;;;;;;;;;;;;;;;10.27;100.00;101290.84;4995603;28;19987;-71
2022/03/13 03:06:50;;;;;;;;;;;;;;;10.29;100.00;101290.78;4994496;28;19924;-71
2022/03/13 03:09:16;;;;;;;;;;;;;;;10.29;100.00;101290.78;4994533;28;20322;-71
2022/03/13 03:11:41;;;;;;;;;;;;;;;10.15;100.00;101296.53;4995661;28;19944;-72
2022/03/13 03:14:06;;;;;;;;;;;;;;;10.10;100.00;101298.47;4994491;28;19922;-72
2022/03/13 03:16:32;;;;;;;;;;;;;;;10.21;100.00;101298.13;4994494;28;19917;-71
2022/03/13 03:18:57;;;;;;;;;;;;;;;10.07;100.00;101305.66;4985485;28;19918;-71
2022/03/13 03:21:23;;;;;;;;;;;;;;;10.03;100.00;101302.22;4974871;28;19918;-71
2022/03/13 03:23:49;;;;;;;;;;;;;;;9.97;100.00;101297.13;4979990;28;19917;-71
2022/03/13 03:29:17;;;;;;;;;;;;;;;9.96;100.00;101299.84;4995493;28;19925;-71
2022/03/13 03:31:44;;;;;;;;;;;;;;;9.88;100.00;101292.09;4994275;28;19917;-71
2022/03/13 03:34:11;;;;;;;;;;;;;;;9.89;100.00;101288.56;4995360;28;19953;-71
2022/03/13 03:36:41;;;;;;;;;;;;;;;9.88;100.00;101291.25;4993973;28;19925;-71
2022/03/13 03:39:06;;;;;;;;;;;;;;;9.92;100.00;101300.84;4994100;28;19925;-71
2022/03/13 03:41:32;;;;;;;;;;;;;;;9.92;100.00;101298.19;4994058;28;19917;-71
2022/03/13 03:43:57;;;;;;;;;;;;;;;9.91;100.00;101296.47;4994081;28;19969;-71
2022/03/13 03:46:24;;;;;;;;;;;;;;;9.90;100.00;101307.97;4986100;28;19969;-70
2022/03/13 03:48:49;;;;;;;;;;;;;;;9.92;100.00;101309.69;4974397;28;20334;-71
2022/03/13 03:51:14;;;;;;;;;;;;;;;9.83;100.00;101309.09;4974435;28;19926;-71
2022/03/13 03:53:40;;;;;;;;;;;;;;;9.78;100.00;101311.91;4993780;28;19949;-72
2022/03/13 03:59:08;;;;;;;;;;;;;;;9.82;100.00;101307.34;4994880;28;19941;-71
2022/03/13 04:04:35;;;;;;;;;;;;;;;9.68;100.00;101297.19;4975526;28;20395;-72
2022/03/13 04:07:01;;;;;;;;;;;;;;;9.63;100.00;101299.13;4993836;28;19961;-71
2022/03/13 04:09:26;;;;;;;;;;;;;;;9.51;100.00;101303.94;4993608;28;19952;-71
2022/03/13 04:11:52;;;;;;;;;;;;;;;9.55;100.00;101310.91;4993606;28;19945;-71
2022/03/13 04:14:20;;;;;;;;;;;;;;;9.54;100.00;101288.81;4993383;28;19922;-71
2022/03/13 04:16:45;;;;;;;;;;;;;;;9.51;100.00;101299.50;4994924;28;20371;-71
2022/03/13 04:19:10;;;;;;;;;;;;;;;9.48;100.00;101294.31;4994806;28;19968;-71
2022/03/13 04:21:40;;;;;;;;;;;;;;;9.51;100.00;101285.38;4993296;28;19922;-71
2022/03/13 04:24:11;;;;;;;;;;;;;;;9.44;100.00;101292.66;4993210;28;19940;-72
2022/03/13 04:26:39;;;;;;;;;;;;;;;9.32;100.00;101291.25;4994782;28;19921;-71
2022/03/13 04:29:06;;;;;;;;;;;;;;;9.33;100.00;101292.97;4993033;28;19924;-71
2022/03/13 04:31:35;;;;;;;;;;;;;;;9.39;100.00;101284.00;4993091;28;19964;-72
2022/03/13 04:34:01;;;;;;;;;;;;;;;9.39;100.00;101291.06;4993202;28;19976;-72
2022/03/13 04:36:28;;;;;;;;;;;;;;;9.46;100.00;101289.94;4994554;28;20374;-71
2022/03/13 04:38:53;;;;;;;;;;;;;;;9.28;100.00;101288.75;4993143;28;20287;-72
2022/03/13 04:41:18;;;;;;;;;;;;;;;9.26;100.00;101291.41;4994368;28;19924;-72
2022/03/13 04:43:44;;;;;;;;;;;;;;;9.26;100.00;101293.22;4994361;28;20447;-72
2022/03/13 04:46:09;;;;;;;;;;;;;;;9.19;100.00;101296.97;4992958;28;19925;-72
2022/03/13 04:48:35;;;;;;;;;;;;;;;9.09;100.00;101299.00;4994578;28;19922;-71
2022/03/13 04:51:01;;;;;;;;;;;;;;;9.07;100.00;101302.63;4992610;28;19922;-72
2022/03/13 04:53:26;;;;;;;;;;;;;;;9.00;100.00;101303.69;4992574;28;19949;-72
2022/03/13 04:55:52;;;;;;;;;;;;;;;9.03;100.00;101303.63;4993653;28;20619;-72
2022/03/13 04:58:18;;;;;;;;;;;;;;;8.97;100.00;101309.97;4992656;28;19918;-72
2022/03/13 05:00:47;;;;;;;;;;;;;;;9.04;100.00;101306.22;4992812;28;19929;-72
2022/03/13 05:03:12;;;;;;;;;;;;;;;9.02;100.00;101312.47;4985103;28;19921;-72
2022/03/13 05:05:39;;;;;;;;;;;;;;;8.92;100.00;101301.28;4984723;28;20365;-72
2022/03/13 05:08:05;;;;;;;;;;;;;;;8.91;100.00;101304.84;4987631;28;20417;-72
2022/03/13 05:10:36;;;;;;;;;;;;;;;8.84;100.00;101300.63;4978892;28;19918;-72
2022/03/13 05:13:02;;;;;;;;;;;;;;;8.87;100.00;101302.34;4999364;28;19921;-72
2022/03/13 05:15:27;;;;;;;;;;;;;;;8.89;100.00;101303.13;5003448;28;19919;-71
2022/03/13 05:17:52;;;;;;;;;;;;;;;8.88;100.00;101298.78;4983679;28;19925;-71
2022/03/13 05:20:18;;;;;;;;;;;;;;;8.77;100.00;101307.03;4992028;28;19925;-72
2022/03/13 05:22:43;;;;;;;;;;;;;;;8.79;100.00;101304.34;4985775;28;19940;-72
2022/03/13 05:25:08;;;;;;;;;;;;;;;8.82;100.00;101307.78;4987698;28;19918;-72
2022/03/13 05:27:33;;;;;;;;;;;;;;;8.83;100.00;101304.19;4996981;28;19922;-72
2022/03/13 05:29:59;;;;;;;;;;;;;;;8.95;100.00;101306.50;4990724;28;19918;-71
2022/03/13 05:32:24;;;;;;;;;;;;;;;8.83;100.00;101306.84;4990474;28;19926;-71
2022/03/13 05:34:50;;;;;;;;;;;;;;;8.85;100.00;101310.34;4987954;28;19918;-72
2022/03/13 05:37:15;;;;;;;;;;;;;;;8.89;100.00;101305.78;4996447;28;19945;-71
2022/03/13 05:39:40;;;;;;;;;;;;;;;8.86;100.00;101305.88;4979957;28;20375;-72
2022/03/13 05:42:06;;;;;;;;;;;;;;;8.89;100.00;101311.09;4987784;28;19962;-71
2022/03/13 05:44:31;;;;;;;;;;;;;;;8.85;100.00;101312.09;4985257;28;19926;-72
2022/03/13 05:46:56;;;;;;;;;;;;;;;8.80;100.00;101306.06;4994543;28;19922;-71
2022/03/13 05:49:22;;;;;;;;;;;;;;;8.89;100.00;101305.78;4987909;28;20393;-72
2022/03/13 05:51:47;;;;;;;;;;;;;;;8.78;100.00;101311.41;4995770;28;19921;-72
2022/03/13 05:54:13;;;;;;;;;;;;;;;8.71;100.00;101303.69;5012728;28;19929;-71
2022/03/13 05:56:38;;;;;;;;;;;;;;;8.67;100.00;101304.66;5003084;28;20303;-71
2022/03/13 05:59:03;;;;;;;;;;;;;;;8.59;100.00;101304.00;4987623;28;19918;-72
2022/03/13 06:01:28;;;;;;;;;;;;;;;8.68;100.00;101306.41;4987584;28;19925;-71
2022/03/13 06:03:54;;;;;;;;;;;;;;;8.55;100.00;101310.28;4976323;28;19918;-72
2022/03/13 06:06:20;;;;;;;;;;;;;;;8.57;100.00;101306.69;4981091;28;19925;-72
2022/03/13 06:08:45;;;;;;;;;;;;;;;8.58;100.00;101310.22;4980050;28;19924;-72
2022/03/13 06:11:11;;;;;;;;;;;;;;;8.50;100.00;101304.25;4992033;28;20295;-71
2022/03/13 06:13:36;;;;;;;;;;;;;;;8.61;100.00;101313.66;4989495;28;20386;-71
2022/03/13 06:16:01;;;;;;;;;;;;;;;8.58;100.00;101313.72;4979857;28;19918;-71
2022/03/13 06:18:30;;;;;;;;;;;;;;;8.57;100.00;101308.47;4995149;28;19964;-71
2022/03/13 06:20:56;;;;;;;;;;;;;;;8.67;100.00;101310.81;4996826;28;19961;-71
2022/03/13 06:23:22;;;;;;;;;;;;;;;8.60;100.00;101308.41;4993906;28;20405;-71
2022/03/13 06:25:48;;;;;;;;;;;;;;;8.70;100.00;101310.75;4995087;28;20374;-71
2022/03/13 06:28:14;;;;;;;;;;;;;;;8.59;100.00;101311.94;4995092;28;19945;-71
2022/03/13 06:30:39;;;;;;;;;;;;;;;8.58;100.00;101318.16;4990691;28;20351;-71
2022/03/13 06:33:05;;;;;;;;;;;;;;;8.61;100.00;101313.66;4983953;28;19960;-71
2022/03/13 06:35:30;;;;;;;;;;;;;;;8.60;100.00;101313.69;4978383;28;19918;-70
2022/03/13 06:37:56;;;;;;;;;;;;;;;8.55;100.00;101316.47;4984415;28;19918;-71
2022/03/13 06:40:23;;;;;;;;;;;;;;;8.64;100.00;101320.63;4995219;28;19932;-71
2022/03/13 06:42:49;;;;;;;;;;;;;;;8.52;100.00;101316.56;4992279;28;19922;-72
2022/03/13 06:45:14;;;;;;;;;;;;;;;8.48;100.00;101319.28;4988511;28;20263;-71
2022/03/13 06:47:41;;;;;;;;;;;;;;;8.47;100.00;101321.09;4985232;28;19925;-71
2022/03/13 06:50:07;;;;;;;;;;;;;;;8.42;100.00;101322.09;4986587;28;19926;-71
2022/03/13 06:52:33;;;;;;;;;;;;;;;8.34;100.00;101321.44;4984292;28;19969;-71
2022/03/13 06:54:59;;;;;;;;;;;;;;;8.23;100.00;101324.38;4976951;28;19918;-71
2022/03/13 06:57:24;;;;;;;;;;;;;;;8.23;100.00;101329.66;4981696;28;19928;-70
2022/03/13 06:59:49;;;;;;;;;;;;;;;8.13;100.00;101333.41;4987375;28;20291;-70
2022/03/13 07:02:15;;;;;;;;;;;;;;;8.13;100.00;101349.28;4976903;28;19980;-71
2022/03/13 07:04:40;;;;;;;;;;;;;;;8.12;100.00;101349.31;4974928;28;19997;-71
2022/03/13 07:07:05;;;;;;;;;;;;;;;7.98;100.00;101352.31;4985318;28;20406;-71
2022/03/13 07:09:31;;;;;;;;;;;;;;;7.99;100.00;101355.81;4978023;28;20057;-71
2022/03/13 07:11:56;;;;;;;;;;;;;;;8.03;100.00;101355.72;4995536;28;19918;-73
2022/03/13 07:14:21;;;;;;;;;;;;;;;8.06;100.00;101353.00;4994147;28;19917;-71
2022/03/13 07:16:47;;;;;;;;;;;;;;;8.00;100.00;101358.44;4994164;28;19925;-71
2022/03/13 07:19:13;;;;;;;;;;;;;;;7.95;100.00;101365.59;4993960;28;19925;-71
2022/03/13 07:21:38;;;;;;;;;;;;;;;7.87;100.00;101362.25;4995284;28;20284;-74
2022/03/13 07:24:04;;;;;;;;;;;;;;;7.82;100.00;101364.13;4995380;28;20390;-71
2022/03/13 07:26:29;;;;;;;;;;;;;;;7.74;100.00;101372.25;4995366;28;19918;-71
2022/03/13 07:28:54;;;;;;;;;;;;;;;7.81;100.00;101367.69;4994926;28;19972;-72
2022/03/13 07:31:20;;;;;;;;;;;;;;;7.86;100.00;101365.81;4993853;28;20358;-71
2022/03/13 07:33:45;;;;;;;;;;;;;;;7.89;100.00;101365.75;4995104;28;19949;-71
2022/03/13 07:36:11;;;;;;;;;;;;;;;7.94;100.00;101370.94;4993260;28;19918;-71
2022/03/13 07:38:36;;;;;;;;;;;;;;;7.98;100.00;101369.94;4993725;28;20048;-71
2022/03/13 07:41:01;;;;;;;;;;;;;;;8.05;100.00;101366.25;4993788;28;19929;-73
2022/03/13 07:43:26;;;;;;;;;;;;;;;8.20;100.00;101361.47;4987815;28;20371;-72
2022/03/13 07:45:52;;;;;;;;;;;;;;;8.45;100.00;101359.97;4975410;28;19925;-71
2022/03/13 07:51:20;;;;;;;;;;;;;;;8.84;100.00;101350.94;4979375;28;19928;-72
2022/03/13 07:53:45;;;;;;;;;;;;;;;9.18;100.00;101350.88;4994877;28;19926;-71
2022/03/13 07:56:10;;;;;;;;;;;;;;;9.31;100.00;101331.91;4993615;28;20013;-71
2022/03/13 07:58:35;;;;;;;;;;;;;;;9.40;100.00;101319.31;4994713;28;20271;-71
2022/03/13 08:01:01;;;;;;;;;;;;;;;9.41;100.00;101323.72;4993132;28;20421;-71
2022/03/13 08:03:29;;;;;;;;;;;;;;;9.37;100.00;101314.09;4994471;28;20291;-71
2022/03/13 08:05:55;;;;;;;;;;;;;;;9.36;100.00;101307.06;4994756;28;19921;-71
2022/03/13 08:08:20;;;;;;;;;;;;;;;9.47;100.00;101315.56;4995286;28;19925;-71
2022/03/13 08:10:45;;;;;;;;;;;;;;;9.56;100.00;101302.91;5005727;28;19928;-71
2022/03/13 08:13:10;;;;;;;;;;;;;;;9.54;100.00;101309.13;5012621;28;19918;-71
2022/03/13 08:15:36;;;;;;;;;;;;;;;9.31;100.00;101305.41;5012725;28;19924;-71
2022/03/13 08:18:02;;;;;;;;;;;;;;;9.29;100.00;101299.31;5012526;28;19964;-71
2022/03/13 08:20:28;;;;;;;;;;;;;;;9.27;100.00;101295.81;5012848;28;20231;-71
2022/03/13 08:22:53;;;;;;;;;;;;;;;9.19;100.00;101299.59;5013778;28;19917;-71
2022/03/13 08:25:19;;;;;;;;;;;;;;;9.29;100.00;101299.31;5012417;28;19918;-71
2022/03/13 08:27:44;;;;;;;;;;;;;;;9.42;100.00;101302.44;5013925;28;19944;-71
2022/03/13 08:30:11;;;;;;;;;;;;;;;9.45;100.00;101304.13;5013709;28;20402;-71
2022/03/13 08:32:38;;;;;;;;;;;;;;;9.55;100.00;101305.59;5012385;28;19917;-71
2022/03/13 08:35:04;;;;;;;;;;;;;;;9.59;100.00;101301.91;5012323;28;20016;-71
2022/03/13 08:37:29;;;;;;;;;;;;;;;9.71;100.00;101301.53;5012487;28;20020;-71
2022/03/13 08:39:54;;;;;;;;;;;;;;;9.65;100.00;101297.28;5012204;28;19921;-72
2022/03/13 08:42:19;;;;;;;;;;;;;;;9.76;100.00;101299.59;5012778;28;19921;-74
2022/03/13 08:44:45;;;;;;;;;;;;;;;9.80;100.00;101291.47;5014027;28;19921;-72
2022/03/13 08:47:10;;;;;;;;;;;;;;;9.71;100.00;101286.47;5006708;28;20288;-74
2022/03/13 08:49:35;;;;;;;;;;;;;;;9.97;100.00;101286.53;4994036;28;19926;-72
2022/03/13 08:52:00;;;;;;;;;;;;;;;9.92;100.00;101287.56;4993929;28;19925;-72
2022/03/13 08:54:25;;;;;;;;;;;;;;;10.04;100.00;101292.47;4992716;28;20030;-73
2022/03/13 08:56:51;;;;;;;;;;;;;;;10.06;100.00;101287.97;4992552;28;20405;-72
2022/03/13 08:59:20;;;;;;;;;;;;;;;10.10;100.00;101292.31;4992439;28;20413;-72
2022/03/13 09:01:45;;;;;;;;;;;;;;;10.28;100.00;101279.28;4993834;28;19921;-72
2022/03/13 09:04:11;;;;;;;;;;;;;;;10.44;100.00;101271.66;4993686;28;19947;-72
2022/03/13 09:06:39;;;;;;;;;;;;;;;10.67;100.00;101282.31;4992313;28;19917;-72
2022/03/13 09:09:05;;;;;;;;;;;;;;;10.71;100.00;101274.16;4992406;28;19922;-71
2022/03/13 09:11:30;;;;;;;;;;;;;;;10.72;100.00;101277.69;4991909;28;20367;-72
2022/03/13 09:13:55;;;;;;;;;;;;;;;10.89;100.00;101272.63;4995554;28;19929;-72
2022/03/13 09:16:20;;;;;;;;;;;;;;;11.10;100.00;101265.66;4993992;28;19926;-73
2022/03/13 09:18:46;;;;;;;;;;;;;;;10.95;100.00;101272.44;4990558;28;20282;-73
2022/03/13 09:21:11;;;;;;;;;;;;;;;11.19;100.00;101266.16;4993079;28;19945;-72
2022/03/13 09:23:36;;;;;;;;;;;;;;;11.09;100.00;101255.94;4991906;28;19944;-73
2022/03/13 09:26:02;;;;;;;;;;;;;;;11.27;100.00;101264.06;4992220;28;20108;-74
2022/03/13 09:28:29;;;;;;;;;;;;;;;11.21;100.00;101266.97;4993237;28;19973;-74
2022/03/13 09:30:54;;;;;;;;;;;;;;;11.33;100.00;101269.16;4992588;28;19918;-73
2022/03/13 09:33:20;;;;;;;;;;;;;;;11.66;100.00;101264.34;4992198;28;19978;-71
2022/03/13 09:35:46;;;;;;;;;;;;;;;11.45;100.00;101270.47;4989500;28;19969;-71
2022/03/13 09:38:11;;;;;;;;;;;;;;;11.62;100.00;101260.91;4981091;28;19918;-71
2022/03/13 09:40:36;;;;;;;;;;;;;;;11.77;100.00;101267.44;4982650;28;20398;-71
2022/03/13 09:43:05;;;;;;;;;;;;;;;11.80;100.00;101262.84;4981377;28;19925;-72
2022/03/13 09:45:31;;;;;;;;;;;;;;;11.77;100.00;101270.94;4987598;28;19949;-72
2022/03/13 09:47:56;;;;;;;;;;;;;;;12.00;100.00;101270.00;4975693;28;19918;-71
2022/03/13 09:50:22;;;;;;;;;;;;;;;12.11;100.00;101263.31;4987652;28;20344;-72
2022/03/13 09:52:47;;;;;;;;;;;;;;;12.34;100.00;101268.50;4993170;28;19922;-72
2022/03/13 09:55:13;;;;;;;;;;;;;;;12.41;100.00;101265.59;4992200;28;19968;-72
2022/03/13 09:57:40;;;;;;;;;;;;;;;12.35;100.00;101258.75;4992405;28;19918;-72
2022/03/13 10:00:07;;;;;;;;;;;;;;;12.53;100.00;101263.25;4995343;28;19917;-71
2022/03/13 10:02:33;;;;;;;;;;;;;;;12.48;100.00;101254.59;4996628;28;19917;-71
2022/03/13 10:05:02;;;;;;;;;;;;;;;12.48;100.00;101264.41;4994896;28;19918;-72
2022/03/13 10:07:28;;;;;;;;;;;;;;;12.44;100.00;101252.13;4994770;28;19925;-71
2022/03/13 10:09:55;;;;;;;;;;;;;;;12.55;100.00;101250.72;4988489;28;19918;-71
2022/03/13 10:12:21;;;;;;;;;;;;;;;12.42;100.00;101249.53;4976014;28;20298;-71
2022/03/13 10:15:03;;;;;;;;;;;;;;;12.52;100.00;101244.66;4992074;28;20025;-71
2022/03/13 10:17:30;;;;;;;;;;;;;;;12.84;100.00;101249.44;4985793;28;19922;-71
2022/03/13 10:20:09;;;;;;;;;;;;;;;13.08;100.00;101249.19;4980489;28;20256;-71
2022/03/13 10:22:35;;;;;;;;;;;;;;;12.91;100.00;101243.75;4995072;28;19929;-72
2022/03/13 10:25:00;;;;;;;;;;;;;;;13.23;100.00;101239.63;4996358;28;19973;-72
2022/03/13 10:27:25;;;;;;;;;;;;;;;13.19;100.00;101240.72;4996097;28;19922;-71
2022/03/13 10:29:50;;;;;;;;;;;;;;;13.40;100.00;101239.69;4995100;28;20394;-72
2022/03/13 10:32:16;;;;;;;;;;;;;;;13.68;100.00;101246.28;4999978;28;19928;-73
2022/03/13 10:34:41;;;;;;;;;;;;;;;13.71;100.00;101245.25;4982910;28;19922;-72
2022/03/13 10:37:07;;;;;;;;;;;;;;;13.79;100.00;101243.06;4991588;28;19926;-72
2022/03/13 10:39:36;;;;;;;;;;;;;;;13.79;100.00;101251.97;4995003;28;19918;-73
2022/03/13 10:42:02;;;;;;;;;;;;;;;13.67;100.00;101254.38;4981755;28;19918;-73
2022/03/13 10:44:34;;;;;;;;;;;;;;;13.90;100.00;101254.09;4989599;28;19944;-71
2022/03/13 10:47:04;;;;;;;;;;;;;;;14.25;100.00;101255.88;4985920;28;19922;-71
2022/03/13 10:49:31;;;;;;;;;;;;;;;14.42;100.00;101245.19;4986346;28;19945;-71
2022/03/13 10:51:57;;;;;;;;;;;;;;;14.56;100.00;101233.78;4977808;28;19921;-72
2022/03/13 10:54:37;;;;;;;;;;;;;;;14.70;100.00;101239.28;4977606;28;19953;-72
2022/03/13 10:57:09;;;;;;;;;;;;;;;14.80;100.00;101233.34;4980645;28;20001;-72
2022/03/13 10:59:35;;;;;;;;;;;;;;;14.90;100.00;101225.69;4986878;28;19922;-72
2022/03/13 11:02:14;;;;;;;;;;;;;;;15.75;100.00;101229.78;4989181;28;20386;-71
2022/03/13 11:04:45;;;;;;;;;;;;;;;17.40;100.00;101224.88;4985676;28;19926;-71
2022/03/13 11:07:10;;;;;;;;;;;;;;;18.23;100.00;101232.78;4994935;28;20326;-72
2022/03/13 11:09:36;;;;;;;;;;;;;;;18.47;100.00;101236.47;4993287;28;19918;-71
2022/03/13 11:12:06;;;;;;;;;;;;;;;18.19;100.00;101234.81;4992302;28;19918;-71
2022/03/13 11:14:33;;;;;;;;;;;;;;;18.86;100.00;101224.78;4987905;28;19922;-71
2022/03/13 11:16:58;;;;;;;;;;;;;;;19.08;100.00;101215.03;4981496;28;19926;-71
2022/03/13 11:19:24;;;;;;;;;;;;;;;19.57;100.00;101220.47;4986119;28;19922;-72
2022/03/13 11:21:49;;;;;;;;;;;;;;;20.20;100.00;101228.28;4988107;28;19922;-71
2022/03/13 11:24:14;;;;;;;;;;;;;;;20.87;100.00;101227.47;4980652;28;19926;-71
2022/03/13 11:26:41;;;;;;;;;;;;;;;21.97;100.00;101235.50;4988266;28;20012;-71
2022/03/13 11:29:10;;;;;;;;;;;;;;;21.14;100.00;101230.69;4984873;28;19940;-71
2022/03/13 11:31:37;;;;;;;;;;;;;;;21.40;100.00;101234.84;4986447;28;19933;-71
2022/03/13 11:34:21;;;;;;;;;;;;;;;18.84;100.00;101226.72;4980554;28;19996;-71
2022/03/13 11:36:51;;;;;;;;;;;;;;;19.68;100.00;101215.16;4991783;28;20283;-72
2022/03/13 11:39:24;;;;;;;;;;;;;;;21.21;100.00;101227.38;4979214;28;19922;-72
2022/03/13 11:41:49;;;;;;;;;;;;;;;21.03;100.00;101212.66;4986213;28;19950;-72
2022/03/13 11:44:17;;;;;;;;;;;;;;;23.14;100.00;101221.66;4987584;28;20294;-73
2022/03/13 11:46:43;;;;;;;;;;;;;;;23.12;100.00;101220.06;4989151;28;20339;-72
2022/03/13 11:49:27;;;;;;;;;;;;;;;23.38;100.00;101218.63;4987011;28;20393;-72
2022/03/13 11:52:17;;;;;;;;;;;;;;;20.61;100.00;101212.47;4986115;28;19922;-71
2022/03/13 11:54:46;;;;;;;;;;;;;;;20.47;100.00;101221.63;4990658;28;20020;-71
2022/03/13 11:57:12;;;;;;;;;;;;;;;20.95;100.00;101208.81;4992616;28;19997;-70
2022/03/13 11:59:38;;;;;;;;;;;;;;;19.73;100.00;101196.78;4991664;28;20059;-69
2022/03/13 12:02:03;;;;;;;;;;;;;;;19.88;100.00;101209.13;4993618;28;19953;-73
2022/03/13 12:04:28;;;;;;;;;;;;;;;18.89;100.00;101205.72;4994513;28;20264;-71
2022/03/13 12:06:56;;;;;;;;;;;;;;;20.16;100.00;101199.81;4976379;28;19982;-71
2022/03/13 12:09:28;;;;;;;;;;;;;;;20.36;100.00;101193.78;4983307;28;19925;-71
2022/03/13 12:12:07;;;;;;;;;;;;;;;21.06;100.00;101196.19;4981984;28;20302;-72
2022/03/13 12:14:48;;;;;;;;;;;;;;;21.80;100.00;101200.00;5008409;28;19964;-72
2022/03/13 12:17:15;;;;;;;;;;;;;;;19.82;100.00;101211.41;4985913;28;19922;-71
2022/03/13 12:19:41;;;;;;;;;;;;;;;19.76;100.00;101191.16;4984085;28;20382;-73
2022/03/13 12:22:06;;;;;;;;;;;;;;;21.79;100.00;101204.59;4991529;28;19945;-71
2022/03/13 12:24:33;;;;;;;;;;;;;;;20.23;100.00;101191.16;4990273;28;20338;-72
2022/03/13 12:27:02;;;;;;;;;;;;;;;20.81;100.00;101193.72;4993669;28;19925;-73
2022/03/13 12:29:28;;;;;;;;;;;;;;;20.65;100.00;101185.09;4994722;28;19918;-72
2022/03/13 12:31:53;;;;;;;;;;;;;;;21.23;100.00;101183.19;4993554;28;19925;-75
2022/03/13 12:34:25;;;;;;;;;;;;;;;21.70;100.00;101183.66;4993742;28;19917;-76
2022/03/13 12:36:53;;;;;;;;;;;;;;;22.40;100.00;101195.69;4994298;28;19918;-74
2022/03/13 12:39:18;;;;;;;;;;;;;;;21.43;100.00;101172.44;4994528;28;19921;-73